sensor_id;sensor_type;location;lat;lon;timestamp;pressure;altitude;pressure_sealevel;temperature;humidity
61710;BME280;47633;51.494;5.386;2023-04-28T00:01:32;101257.94;;;18.96;35.96
61710;BME280;47633;51.494;5.386;2023-04-28T00:03:57;101251.94;;;18.94;35.81
61710;BME280;47633;51.494;5.386;2023-04-28T00:06:23;101250.38;;;18.91;36.00
61710;BME280;47633;51.494;5.386;2023-04-28T00:08:48;101254.59;;;18.94;35.89
61710;BME280;47633;51.494;5.386;2023-04-28T00:11:13;101244.13;;;18.92;35.96
61710;BME280;47633;51.494;5.386;2023-04-28T00:13:39;101244.25;;;18.91;36.08
61710;BME280;47633;51.494;5.386;2023-04-28T00:16:04;101238.25;;;18.89;36.05
61710;BME280;47633;51.494;5.386;2023-04-28T00:18:29;101237.41;;;18.88;36.11
61710;BME280;47633;51.494;5.386;2023-04-28T00:20:55;101233.69;;;18.91;36.07
61710;BME280;47633;51.494;5.386;2023-04-28T00:23:20;101219.91;;;18.87;36.12
61710;BME280;47633;51.494;5.386;2023-04-28T00:25:52;101235.75;;;18.87;36.35
61710;BME280;47633;51.494;5.386;2023-04-28T00:28:18;101228.66;;;18.88;36.15
61710;BME280;47633;51.494;5.386;2023-04-28T00:30:43;101228.88;;;18.84;36.37
61710;BME280;47633;51.494;5.386;2023-04-28T00:33:09;101225.41;;;18.84;36.31
61710;BME280;47633;51.494;5.386;2023-04-28T00:35:34;101210.50;;;18.83;36.43
61710;BME280;47633;51.494;5.386;2023-04-28T00:37:59;101200.69;;;18.85;36.49
61710;BME280;47633;51.494;5.386;2023-04-28T00:40:35;101192.13;;;18.81;36.70
61710;BME280;47633;51.494;5.386;2023-04-28T00:43:01;101183.50;;;18.79;36.46
61710;BME280;47633;51.494;5.386;2023-04-28T00:45:26;101184.19;;;18.81;36.75
61710;BME280;47633;51.494;5.386;2023-04-28T00:47:52;101183.50;;;18.79;36.49
61710;BME280;47633;51.494;5.386;2023-04-28T00:50:18;101185.19;;;18.80;36.69
61710;BME280;47633;51.494;5.386;2023-04-28T00:52:44;101180.97;;;18.78;36.57
61710;BME280;47633;51.494;5.386;2023-04-28T00:55:09;101167.78;;;18.78;36.68
61710;BME280;47633;51.494;5.386;2023-04-28T00:57:35;101159.84;;;18.78;36.70
61710;BME280;47633;51.494;5.386;2023-04-28T01:00:02;101158.28;;;18.75;36.72
61710;BME280;47633;51.494;5.386;2023-04-28T01:02:28;101160.69;;;18.78;36.77
61710;BME280;47633;51.494;5.386;2023-04-28T01:04:55;101164.31;;;18.77;36.72
61710;BME280;47633;51.494;5.386;2023-04-28T01:07:21;101159.03;;;18.77;36.90
61710;BME280;47633;51.494;5.386;2023-04-28T01:09:46;101166.19;;;18.75;37.02
61710;BME280;47633;51.494;5.386;2023-04-28T01:12:12;101168.13;;;18.73;36.94
61710;BME280;47633;51.494;5.386;2023-04-28T01:14:37;101167.31;;;18.73;36.80
61710;BME280;47633;51.494;5.386;2023-04-28T01:17:03;101163.56;;;18.75;37.08
61710;BME280;47633;51.494;5.386;2023-04-28T01:19:28;101154.94;;;18.73;36.87
61710;BME280;47633;51.494;5.386;2023-04-28T01:21:54;101138.97;;;18.75;36.94
61710;BME280;47633;51.494;5.386;2023-04-28T01:24:19;101135.63;;;18.73;37.21
61710;BME280;47633;51.494;5.386;2023-04-28T01:26:45;101133.94;;;18.72;37.15
61710;BME280;47633;51.494;5.386;2023-04-28T01:29:10;101138.25;;;18.73;36.88
61710;BME280;47633;51.494;5.386;2023-04-28T01:31:35;101131.41;;;18.70;36.88
61710;BME280;47633;51.494;5.386;2023-04-28T01:34:01;101130.56;;;18.70;37.17
61710;BME280;47633;51.494;5.386;2023-04-28T01:36:26;101135.84;;;18.70;37.26
61710;BME280;47633;51.494;5.386;2023-04-28T01:38:52;101134.06;;;18.70;36.94
61710;BME280;47633;51.494;5.386;2023-04-28T01:41:18;101130.56;;;18.70;36.96
61710;BME280;47633;51.494;5.386;2023-04-28T01:43:43;101119.16;;;18.69;37.09
61710;BME280;47633;51.494;5.386;2023-04-28T01:46:11;101123.59;;;18.68;37.04
61710;BME280;47633;51.494;5.386;2023-04-28T01:48:36;101120.97;;;18.68;37.18
61710;BME280;47633;51.494;5.386;2023-04-28T01:51:02;101119.31;;;18.67;36.99
61710;BME280;47633;51.494;5.386;2023-04-28T01:53:27;101113.53;;;18.62;37.14
61710;BME280;47633;51.494;5.386;2023-04-28T01:55:52;101116.78;;;18.66;37.21
61710;BME280;47633;51.494;5.386;2023-04-28T01:58:18;101109.81;;;18.65;36.96
61710;BME280;47633;51.494;5.386;2023-04-28T02:00:43;101106.34;;;18.64;37.21
61710;BME280;47633;51.494;5.386;2023-04-28T02:03:09;101108.13;;;18.64;37.32
61710;BME280;47633;51.494;5.386;2023-04-28T02:05:34;101110.78;;;18.64;37.33
61710;BME280;47633;51.494;5.386;2023-04-28T02:07:59;101110.88;;;18.62;37.33
61710;BME280;47633;51.494;5.386;2023-04-28T02:10:24;101119.78;;;18.61;37.17
61710;BME280;47633;51.494;5.386;2023-04-28T02:12:50;101111.88;;;18.61;37.32
61710;BME280;47633;51.494;5.386;2023-04-28T02:15:15;101109.94;;;18.63;37.26
61710;BME280;47633;51.494;5.386;2023-04-28T02:17:41;101106.47;;;18.63;37.11
61710;BME280;47633;51.494;5.386;2023-04-28T02:20:06;101098.66;;;18.61;37.41
61710;BME280;47633;51.494;5.386;2023-04-28T02:22:32;101092.53;;;18.61;37.32
61710;BME280;47633;51.494;5.386;2023-04-28T02:24:57;101091.72;;;18.60;37.31
61710;BME280;47633;51.494;5.386;2023-04-28T02:27:22;101100.34;;;18.62;37.50
61710;BME280;47633;51.494;5.386;2023-04-28T02:29:48;101082.97;;;18.60;37.35
61710;BME280;47633;51.494;5.386;2023-04-28T02:32:13;101068.78;;;18.61;37.28
61710;BME280;47633;51.494;5.386;2023-04-28T02:34:39;101060.16;;;18.59;37.48
61710;BME280;47633;51.494;5.386;2023-04-28T02:37:04;101039.88;;;18.59;37.21
61710;BME280;47633;51.494;5.386;2023-04-28T02:39:29;101034.59;;;18.59;37.35
61710;BME280;47633;51.494;5.386;2023-04-28T02:41:57;101024.03;;;18.59;37.34
61710;BME280;47633;51.494;5.386;2023-04-28T02:44:22;101014.44;;;18.58;37.42
61710;BME280;47633;51.494;5.386;2023-04-28T02:46:47;101015.28;;;18.59;37.47
61710;BME280;47633;51.494;5.386;2023-04-28T02:49:12;101004.00;;;18.57;37.62
61710;BME280;47633;51.494;5.386;2023-04-28T02:51:38;100997.75;;;18.58;37.63
61710;BME280;47633;51.494;5.386;2023-04-28T02:54:04;101003.03;;;18.58;37.41
61710;BME280;47633;51.494;5.386;2023-04-28T02:56:29;101018.88;;;18.58;37.63
61710;BME280;47633;51.494;5.386;2023-04-28T02:58:54;101021.63;;;18.56;37.24
61710;BME280;47633;51.494;5.386;2023-04-28T03:01:20;101019.00;;;18.56;37.46
61710;BME280;47633;51.494;5.386;2023-04-28T03:03:45;101022.50;;;18.57;37.52
61710;BME280;47633;51.494;5.386;2023-04-28T03:06:11;101017.34;;;18.55;37.45
61710;BME280;47633;51.494;5.386;2023-04-28T03:08:36;101012.06;;;18.55;37.43
61710;BME280;47633;51.494;5.386;2023-04-28T03:11:01;101011.06;;;18.56;37.58
61710;BME280;47633;51.494;5.386;2023-04-28T03:13:26;101014.69;;;18.55;37.62
61710;BME280;47633;51.494;5.386;2023-04-28T03:15:53;101019.00;;;18.56;37.48
61710;BME280;47633;51.494;5.386;2023-04-28T03:18:19;101006.16;;;18.52;37.37
61710;BME280;47633;51.494;5.386;2023-04-28T03:20:44;101020.94;;;18.54;37.47
61710;BME280;47633;51.494;5.386;2023-04-28T03:23:09;101019.25;;;18.53;37.81
61710;BME280;47633;51.494;5.386;2023-04-28T03:25:35;101015.78;;;18.53;37.88
61710;BME280;47633;51.494;5.386;2023-04-28T03:28:00;101028.84;;;18.54;37.64
61710;BME280;47633;51.494;5.386;2023-04-28T03:30:26;101028.97;;;18.53;37.80
61710;BME280;47633;51.494;5.386;2023-04-28T03:32:52;101027.16;;;18.53;37.63
61710;BME280;47633;51.494;5.386;2023-04-28T03:35:17;101011.44;;;18.52;37.73
61710;BME280;47633;51.494;5.386;2023-04-28T03:37:42;101010.72;;;18.49;37.62
61710;BME280;47633;51.494;5.386;2023-04-28T03:40:08;101002.00;;;18.49;37.79
61710;BME280;47633;51.494;5.386;2023-04-28T03:42:33;100995.88;;;18.48;37.82
61710;BME280;47633;51.494;5.386;2023-04-28T03:44:58;100997.78;;;18.46;37.69
61710;BME280;47633;51.494;5.386;2023-04-28T03:47:24;101005.47;;;18.49;37.94
61710;BME280;47633;51.494;5.386;2023-04-28T03:49:49;101001.16;;;18.48;38.15
61710;BME280;47633;51.494;5.386;2023-04-28T03:52:15;100999.47;;;18.47;37.83
61710;BME280;47633;51.494;5.386;2023-04-28T03:54:40;100995.75;;;18.50;37.79
61710;BME280;47633;51.494;5.386;2023-04-28T03:57:05;100985.19;;;18.50;38.06
61710;BME280;47633;51.494;5.386;2023-04-28T03:59:31;100980.75;;;18.51;37.94
61710;BME280;47633;51.494;5.386;2023-04-28T04:01:56;100977.41;;;18.48;37.91
61710;BME280;47633;51.494;5.386;2023-04-28T04:04:22;100982.56;;;18.50;38.04
61710;BME280;47633;51.494;5.386;2023-04-28T04:06:47;100981.00;;;18.47;38.01
61710;BME280;47633;51.494;5.386;2023-04-28T04:09:12;100980.16;;;18.47;37.87
61710;BME280;47633;51.494;5.386;2023-04-28T04:11:38;100981.00;;;18.47;37.84
61710;BME280;47633;51.494;5.386;2023-04-28T04:14:03;100982.81;;;18.47;37.61
61710;BME280;47633;51.494;5.386;2023-04-28T04:16:28;100985.44;;;18.47;37.94
61710;BME280;47633;51.494;5.386;2023-04-28T04:18:54;100980.16;;;18.47;37.99
61710;BME280;47633;51.494;5.386;2023-04-28T04:21:19;100984.59;;;18.46;38.04
61710;BME280;47633;51.494;5.386;2023-04-28T04:23:44;100986.41;;;18.46;38.23
61710;BME280;47633;51.494;5.386;2023-04-28T04:26:09;100996.00;;;18.47;38.22
61710;BME280;47633;51.494;5.386;2023-04-28T04:28:35;100990.00;;;18.45;38.12
61710;BME280;47633;51.494;5.386;2023-04-28T04:31:00;100979.69;;;18.42;38.28
61710;BME280;47633;51.494;5.386;2023-04-28T04:33:26;100975.13;;;18.44;38.04
61710;BME280;47633;51.494;5.386;2023-04-28T04:35:53;100982.06;;;18.45;38.31
61710;BME280;47633;51.494;5.386;2023-04-28T04:38:18;100976.22;;;18.41;38.04
61710;BME280;47633;51.494;5.386;2023-04-28T04:40:43;100968.16;;;18.43;38.21
61710;BME280;47633;51.494;5.386;2023-04-28T04:43:08;100959.44;;;18.42;38.37
61710;BME280;47633;51.494;5.386;2023-04-28T04:45:34;100953.41;;;18.40;38.26
61710;BME280;47633;51.494;5.386;2023-04-28T04:47:59;100946.22;;;18.42;38.49
61710;BME280;47633;51.494;5.386;2023-04-28T04:50:24;100940.97;;;18.42;38.16
61710;BME280;47633;51.494;5.386;2023-04-28T04:52:50;100933.16;;;18.41;38.33
61710;BME280;47633;51.494;5.386;2023-04-28T04:55:15;100941.78;;;18.43;38.31
61710;BME280;47633;51.494;5.386;2023-04-28T04:57:40;100942.72;;;18.42;38.39
61710;BME280;47633;51.494;5.386;2023-04-28T05:00:06;100946.34;;;18.41;38.32
61710;BME280;47633;51.494;5.386;2023-04-28T05:02:32;100948.13;;;18.40;38.23
61710;BME280;47633;51.494;5.386;2023-04-28T05:04:57;100950.78;;;18.40;38.46
61710;BME280;47633;51.494;5.386;2023-04-28T05:07:22;100941.91;;;18.41;38.46
61710;BME280;47633;51.494;5.386;2023-04-28T05:09:47;100942.03;;;18.40;38.28
61710;BME280;47633;51.494;5.386;2023-04-28T05:12:13;100939.25;;;18.41;38.49
61710;BME280;47633;51.494;5.386;2023-04-28T05:14:38;100932.44;;;18.39;38.44
61710;BME280;47633;51.494;5.386;2023-04-28T05:17:03;100942.63;;;18.43;38.18
61710;BME280;47633;51.494;5.386;2023-04-28T05:19:28;100939.84;;;18.45;38.23
61710;BME280;47633;51.494;5.386;2023-04-28T05:21:54;100944.06;;;18.47;38.60
61710;BME280;47633;51.494;5.386;2023-04-28T05:24:22;100943.94;;;18.49;38.59
61710;BME280;47633;51.494;5.386;2023-04-28T05:26:49;100945.47;;;18.52;38.49
61710;BME280;47633;51.494;5.386;2023-04-28T05:29:15;100945.22;;;18.55;38.39
61710;BME280;47633;51.494;5.386;2023-04-28T05:31:40;100947.47;;;18.59;38.56
61710;BME280;47633;51.494;5.386;2023-04-28T05:34:06;100951.56;;;18.63;38.54
61710;BME280;47633;51.494;5.386;2023-04-28T05:36:31;100953.00;;;18.67;38.41
61710;BME280;47633;51.494;5.386;2023-04-28T05:38:56;100948.41;;;18.70;38.34
61710;BME280;47633;51.494;5.386;2023-04-28T05:41:22;100956.91;;;18.73;38.54
61710;BME280;47633;51.494;5.386;2023-04-28T05:43:47;100938.44;;;18.73;38.52
61710;BME280;47633;51.494;5.386;2023-04-28T05:46:15;100948.63;;;18.78;38.55
61710;BME280;47633;51.494;5.386;2023-04-28T05:48:40;100946.69;;;18.80;38.49
61710;BME280;47633;51.494;5.386;2023-04-28T05:51:05;100940.56;;;18.79;38.85
61710;BME280;47633;51.494;5.386;2023-04-28T05:53:31;100945.59;;;18.82;38.65
61710;BME280;47633;51.494;5.386;2023-04-28T05:55:56;100943.44;;;18.88;38.66
61710;BME280;47633;51.494;5.386;2023-04-28T05:58:21;100932.88;;;18.88;38.50
61710;BME280;47633;51.494;5.386;2023-04-28T06:00:46;100931.81;;;18.90;38.40
61710;BME280;47633;51.494;5.386;2023-04-28T06:03:12;100930.94;;;18.90;38.49
61710;BME280;47633;51.494;5.386;2023-04-28T06:05:38;100932.63;;;18.91;38.57
61710;BME280;47633;51.494;5.386;2023-04-28T06:08:04;100931.69;;;18.92;38.64
61710;BME280;47633;51.494;5.386;2023-04-28T06:10:29;100932.50;;;18.92;38.85
61710;BME280;47633;51.494;5.386;2023-04-28T06:12:54;100936.72;;;18.95;38.55
61710;BME280;47633;51.494;5.386;2023-04-28T06:15:20;100928.06;;;18.93;38.76
61710;BME280;47633;51.494;5.386;2023-04-28T06:17:46;100928.91;;;18.93;38.62
61710;BME280;47633;51.494;5.386;2023-04-28T06:20:12;100930.56;;;18.94;38.66
61710;BME280;47633;51.494;5.386;2023-04-28T06:22:38;100929.63;;;18.95;38.79
61710;BME280;47633;51.494;5.386;2023-04-28T06:25:04;100927.78;;;18.96;38.83
61710;BME280;47633;51.494;5.386;2023-04-28T06:27:30;100924.34;;;18.95;38.82
61710;BME280;47633;51.494;5.386;2023-04-28T06:29:57;100931.16;;;18.98;38.75
61710;BME280;47633;51.494;5.386;2023-04-28T06:32:22;100936.44;;;18.98;38.86
61710;BME280;47633;51.494;5.386;2023-04-28T06:34:47;100935.47;;;18.99;38.91
61710;BME280;47633;51.494;5.386;2023-04-28T06:37:12;100931.16;;;18.98;39.05
61710;BME280;47633;51.494;5.386;2023-04-28T06:39:38;100934.38;;;19.01;38.90
61710;BME280;47633;51.494;5.386;2023-04-28T06:42:03;100930.19;;;18.99;39.14
61710;BME280;47633;51.494;5.386;2023-04-28T06:44:28;100926.72;;;18.98;39.20
61710;BME280;47633;51.494;5.386;2023-04-28T06:46:54;100931.03;;;18.99;39.53
61710;BME280;47633;51.494;5.386;2023-04-28T06:49:19;100930.75;;;19.02;39.65
61710;BME280;47633;51.494;5.386;2023-04-28T06:51:45;100919.38;;;19.02;39.96
61710;BME280;47633;51.494;5.386;2023-04-28T06:54:10;100918.78;;;18.98;40.03
61710;BME280;47633;51.494;5.386;2023-04-28T06:56:35;100923.69;;;19.03;40.25
61710;BME280;47633;51.494;5.386;2023-04-28T06:59:01;100915.91;;;19.01;40.30
61710;BME280;47633;51.494;5.386;2023-04-28T07:01:27;100918.28;;;19.05;40.56
61710;BME280;47633;51.494;5.386;2023-04-28T07:03:53;100912.00;;;19.06;40.51
61710;BME280;47633;51.494;5.386;2023-04-28T07:06:18;100911.88;;;19.07;40.65
61710;BME280;47633;51.494;5.386;2023-04-28T07:08:44;100913.56;;;19.08;40.94
61710;BME280;47633;51.494;5.386;2023-04-28T07:11:09;100915.38;;;19.08;41.05
61710;BME280;47633;51.494;5.386;2023-04-28T07:13:35;100917.03;;;19.09;41.15
61710;BME280;47633;51.494;5.386;2023-04-28T07:16:00;100916.22;;;19.08;41.11
61710;BME280;47633;51.494;5.386;2023-04-28T07:18:26;100916.91;;;19.10;41.07
61710;BME280;47633;51.494;5.386;2023-04-28T07:20:51;100910.66;;;19.11;41.26
61710;BME280;47633;51.494;5.386;2023-04-28T07:23:17;100913.31;;;19.11;41.41
61710;BME280;47633;51.494;5.386;2023-04-28T07:25:42;100919.28;;;19.13;41.64
61710;BME280;47633;51.494;5.386;2023-04-28T07:28:08;100912.50;;;19.11;41.43
61710;BME280;47633;51.494;5.386;2023-04-28T07:30:34;100921.81;;;19.15;41.71
61710;BME280;47633;51.494;5.386;2023-04-28T07:32:59;100923.50;;;19.16;41.83
61710;BME280;47633;51.494;5.386;2023-04-28T07:35:25;100921.94;;;19.13;41.86
61710;BME280;47633;51.494;5.386;2023-04-28T07:37:50;100915.81;;;19.13;41.93
61710;BME280;47633;51.494;5.386;2023-04-28T07:40:17;100923.63;;;19.14;41.92
61710;BME280;47633;51.494;5.386;2023-04-28T07:42:42;100925.44;;;19.14;42.31
61710;BME280;47633;51.494;5.386;2023-04-28T07:45:08;100937.53;;;19.16;42.10
61710;BME280;47633;51.494;5.386;2023-04-28T07:47:33;100926.97;;;19.16;42.37
61710;BME280;47633;51.494;5.386;2023-04-28T07:49:59;100918.47;;;19.13;42.79
61710;BME280;47633;51.494;5.386;2023-04-28T07:52:28;100926.25;;;19.14;42.50
61710;BME280;47633;51.494;5.386;2023-04-28T07:54:54;100920.41;;;19.11;42.71
61710;BME280;47633;51.494;5.386;2023-04-28T07:57:19;100925.31;;;19.15;42.33
61710;BME280;47633;51.494;5.386;2023-04-28T07:59:44;100925.44;;;19.14;42.59
61710;BME280;47633;51.494;5.386;2023-04-28T08:02:10;100928.06;;;19.14;42.41
61710;BME280;47633;51.494;5.386;2023-04-28T08:04:37;100925.44;;;19.14;42.47
61710;BME280;47633;51.494;5.386;2023-04-28T08:07:03;100923.75;;;19.13;42.58
61710;BME280;47633;51.494;5.386;2023-04-28T08:09:28;100932.25;;;19.16;42.12
61710;BME280;47633;51.494;5.386;2023-04-28T08:11:53;100929.75;;;19.15;42.80
61710;BME280;47633;51.494;5.386;2023-04-28T08:14:19;100924.59;;;19.13;42.86
61710;BME280;47633;51.494;5.386;2023-04-28T08:16:45;100923.50;;;19.16;43.09
61710;BME280;47633;51.494;5.386;2023-04-28T08:19:11;100928.78;;;19.16;42.91
61710;BME280;47633;51.494;5.386;2023-04-28T08:21:36;100932.25;;;19.16;43.22
61710;BME280;47633;51.494;5.386;2023-04-28T08:24:02;100929.59;;;19.16;42.99
61710;BME280;47633;51.494;5.386;2023-04-28T08:26:28;100924.31;;;19.16;43.61
61710;BME280;47633;51.494;5.386;2023-04-28T08:28:53;100918.34;;;19.14;43.40
61710;BME280;47633;51.494;5.386;2023-04-28T08:31:19;100923.50;;;19.16;43.14
61710;BME280;47633;51.494;5.386;2023-04-28T08:33:44;100932.13;;;19.18;43.24
61710;BME280;47633;51.494;5.386;2023-04-28T08:36:12;100926.97;;;19.16;43.46
61710;BME280;47633;51.494;5.386;2023-04-28T08:38:39;100927.94;;;19.15;43.32
61710;BME280;47633;51.494;5.386;2023-04-28T08:41:04;100928.53;;;19.19;43.33
61710;BME280;47633;51.494;5.386;2023-04-28T08:43:33;100925.06;;;19.18;43.69
61710;BME280;47633;51.494;5.386;2023-04-28T08:46:01;100919.28;;;19.13;43.18
61710;BME280;47633;51.494;5.386;2023-04-28T08:48:30;100925.06;;;19.18;43.26
61710;BME280;47633;51.494;5.386;2023-04-28T08:50:57;100927.41;;;19.21;43.54
61710;BME280;47633;51.494;5.386;2023-04-28T08:53:25;100927.53;;;19.20;43.71
61710;BME280;47633;51.494;5.386;2023-04-28T08:55:53;100930.19;;;19.20;43.88
61710;BME280;47633;51.494;5.386;2023-04-28T08:58:24;100934.50;;;19.21;44.02
61710;BME280;47633;51.494;5.386;2023-04-28T09:00:50;100932.81;;;19.20;43.92
61710;BME280;47633;51.494;5.386;2023-04-28T09:03:16;100944.25;;;19.20;43.85
61710;BME280;47633;51.494;5.386;2023-04-28T09:05:41;100937.03;;;19.23;43.96
61710;BME280;47633;51.494;5.386;2023-04-28T09:08:07;100935.34;;;19.21;43.93
61710;BME280;47633;51.494;5.386;2023-04-28T09:10:32;100933.28;;;19.25;43.93
61710;BME280;47633;51.494;5.386;2023-04-28T09:12:57;100934.81;;;19.28;44.15
61710;BME280;47633;51.494;5.386;2023-04-28T09:15:33;100935.69;;;19.28;44.54
61710;BME280;47633;51.494;5.386;2023-04-28T09:17:59;100932.66;;;19.33;44.40
61710;BME280;47633;51.494;5.386;2023-04-28T09:20:27;100936.94;;;19.34;44.31
61710;BME280;47633;51.494;5.386;2023-04-28T09:22:54;100930.56;;;19.36;44.24
61710;BME280;47633;51.494;5.386;2023-04-28T09:25:20;100925.41;;;19.35;44.11
61710;BME280;47633;51.494;5.386;2023-04-28T09:27:47;100923.34;;;19.38;44.44
61710;BME280;47633;51.494;5.386;2023-04-28T09:30:13;100932.81;;;19.41;44.49
61710;BME280;47633;51.494;5.386;2023-04-28T09:32:38;100923.34;;;19.38;44.77
61710;BME280;47633;51.494;5.386;2023-04-28T09:35:04;100927.09;;;19.36;44.44
61710;BME280;47633;51.494;5.386;2023-04-28T09:37:31;100938.63;;;19.35;44.73
61710;BME280;47633;51.494;5.386;2023-04-28T09:40:04;100928.44;;;19.30;44.50
61710;BME280;47633;51.494;5.386;2023-04-28T09:42:34;100938.19;;;19.30;44.56
61710;BME280;47633;51.494;5.386;2023-04-28T09:45:01;100938.88;;;19.32;44.97
61710;BME280;47633;51.494;5.386;2023-04-28T09:47:28;100940.09;;;19.28;45.10
61710;BME280;47633;51.494;5.386;2023-04-28T09:49:58;100942.50;;;19.31;45.80
61710;BME280;47633;51.494;5.386;2023-04-28T09:52:24;100944.31;;;19.30;46.03
61710;BME280;47633;51.494;5.386;2023-04-28T09:54:50;100949.47;;;19.32;45.78
61710;BME280;47633;51.494;5.386;2023-04-28T09:57:17;100936.81;;;19.35;45.48
61710;BME280;47633;51.494;5.386;2023-04-28T09:59:46;100947.97;;;19.39;45.73
61710;BME280;47633;51.494;5.386;2023-04-28T10:02:13;100949.63;;;19.40;45.43
61710;BME280;47633;51.494;5.386;2023-04-28T10:04:40;100953.25;;;19.39;45.55
61710;BME280;47633;51.494;5.386;2023-04-28T10:07:06;100942.22;;;19.34;45.65
61710;BME280;47633;51.494;5.386;2023-04-28T10:09:33;100947.38;;;19.35;45.90
61710;BME280;47633;51.494;5.386;2023-04-28T10:11:59;100945.59;;;19.36;45.85
61710;BME280;47633;51.494;5.386;2023-04-28T10:14:25;100945.78;;;19.44;45.86
61710;BME280;47633;51.494;5.386;2023-04-28T10:16:51;100952.59;;;19.47;45.71
61710;BME280;47633;51.494;5.386;2023-04-28T10:19:18;100941.44;;;19.43;46.25
61710;BME280;47633;51.494;5.386;2023-04-28T10:24:31;100937.06;;;19.32;46.33
61710;BME280;47633;51.494;5.386;2023-04-28T10:27:03;100935.41;;;19.31;46.29
61710;BME280;47633;51.494;5.386;2023-04-28T10:29:30;100934.56;;;19.31;46.40
61710;BME280;47633;51.494;5.386;2023-04-28T10:34:42;100937.50;;;19.37;46.03
61710;BME280;47633;51.494;5.386;2023-04-28T10:37:07;100939.91;;;19.40;46.05
61710;BME280;47633;51.494;5.386;2023-04-28T10:39:32;100943.28;;;19.43;45.92
61710;BME280;47633;51.494;5.386;2023-04-28T10:41:58;100938.81;;;19.43;45.67
61710;BME280;47633;51.494;5.386;2023-04-28T10:47:05;100916.53;;;19.36;46.02
61710;BME280;47633;51.494;5.386;2023-04-28T10:52:47;100936.69;;;19.37;46.36
61710;BME280;47633;51.494;5.386;2023-04-28T10:55:29;100918.72;;;19.31;46.22
61710;BME280;47633;51.494;5.386;2023-04-28T10:58:29;100931.66;;;19.34;46.44
61710;BME280;47633;51.494;5.386;2023-04-28T11:06:25;100918.84;;;19.29;46.27
61710;BME280;47633;51.494;5.386;2023-04-28T11:11:37;100912.03;;;19.27;46.39
61710;BME280;47633;51.494;5.386;2023-04-28T11:19:25;100905.88;;;19.26;46.28
61710;BME280;47633;51.494;5.386;2023-04-28T11:21:53;100900.84;;;19.23;46.23
61710;BME280;47633;51.494;5.386;2023-04-28T11:24:20;100902.66;;;19.23;46.22
61710;BME280;47633;51.494;5.386;2023-04-28T11:26:46;100900.16;;;19.21;46.34
61710;BME280;47633;51.494;5.386;2023-04-28T11:29:12;100905.31;;;19.23;46.02
61710;BME280;47633;51.494;5.386;2023-04-28T11:31:39;100904.88;;;19.17;46.25
61710;BME280;47633;51.494;5.386;2023-04-28T11:34:10;100904.88;;;19.17;46.34
61710;BME280;47633;51.494;5.386;2023-04-28T11:36:39;100913.63;;;19.18;46.33
61710;BME280;47633;51.494;5.386;2023-04-28T11:39:07;100910.84;;;19.19;46.34
61710;BME280;47633;51.494;5.386;2023-04-28T11:41:34;100915.44;;;19.17;46.29
61710;BME280;47633;51.494;5.386;2023-04-28T11:44:00;100910.41;;;19.14;46.62
61710;BME280;47633;51.494;5.386;2023-04-28T11:46:25;100914.63;;;19.17;46.42
61710;BME280;47633;51.494;5.386;2023-04-28T11:49:04;100922.94;;;19.12;46.47
61710;BME280;47633;51.494;5.386;2023-04-28T11:51:35;100929.88;;;19.13;46.38
61710;BME280;47633;51.494;5.386;2023-04-28T11:54:03;100917.63;;;19.12;46.52
61710;BME280;47633;51.494;5.386;2023-04-28T11:56:29;100927.34;;;19.12;46.56
61710;BME280;47633;51.494;5.386;2023-04-28T11:59:04;100930.00;;;19.12;46.78
61710;BME280;47633;51.494;5.386;2023-04-28T12:01:31;100930.97;;;19.11;46.70
61710;BME280;47633;51.494;5.386;2023-04-28T12:03:57;100927.47;;;19.10;46.83
61710;BME280;47633;51.494;5.386;2023-04-28T12:06:23;100939.03;;;19.09;46.65
61710;BME280;47633;51.494;5.386;2023-04-28T12:08:48;100933.03;;;19.07;46.48
61710;BME280;47633;51.494;5.386;2023-04-28T12:11:15;100929.41;;;19.08;46.81
61710;BME280;47633;51.494;5.386;2023-04-28T12:13:42;100933.75;;;19.09;46.75
61710;BME280;47633;51.494;5.386;2023-04-28T12:16:07;100926.91;;;19.07;46.82
61710;BME280;47633;51.494;5.386;2023-04-28T12:18:34;100932.06;;;19.08;47.11
61710;BME280;47633;51.494;5.386;2023-04-28T12:21:03;100935.66;;;19.07;46.93
61710;BME280;47633;51.494;5.386;2023-04-28T12:23:34;100944.56;;;19.06;46.98
61710;BME280;47633;51.494;5.386;2023-04-28T12:26:01;100942.06;;;19.05;47.10
61710;BME280;47633;51.494;5.386;2023-04-28T12:31:05;100956.66;;;19.09;47.35
61710;BME280;47633;51.494;5.386;2023-04-28T12:33:33;100957.53;;;19.09;48.13
61710;BME280;47633;51.494;5.386;2023-04-28T12:36:02;100964.47;;;19.10;47.98
61710;BME280;47633;51.494;5.386;2023-04-28T12:38:28;100966.41;;;19.08;47.76
61710;BME280;47633;51.494;5.386;2023-04-28T12:40:53;100965.56;;;19.08;48.11
61710;BME280;47633;51.494;5.386;2023-04-28T12:43:19;100965.56;;;19.08;48.32
61710;BME280;47633;51.494;5.386;2023-04-28T12:45:48;100968.09;;;19.09;48.16
61710;BME280;47633;51.494;5.386;2023-04-28T12:48:13;100963.63;;;19.10;49.45
61710;BME280;47633;51.494;5.386;2023-04-28T12:50:38;100971.56;;;19.10;49.38
61710;BME280;47633;51.494;5.386;2023-04-28T12:53:03;100975.88;;;19.11;49.28
61710;BME280;47633;51.494;5.386;2023-04-28T12:55:29;100986.72;;;19.08;49.99
61710;BME280;47633;51.494;5.386;2023-04-28T12:57:54;100982.00;;;19.11;50.24
61710;BME280;47633;51.494;5.386;2023-04-28T13:00:20;100991.00;;;19.09;50.05
61710;BME280;47633;51.494;5.386;2023-04-28T13:02:48;100985.72;;;19.09;50.29
61710;BME280;47633;51.494;5.386;2023-04-28T13:05:13;100984.06;;;19.08;49.98
61710;BME280;47633;51.494;5.386;2023-04-28T13:07:39;100994.50;;;19.09;50.25
61710;BME280;47633;51.494;5.386;2023-04-28T13:10:05;100995.47;;;19.08;50.17
61710;BME280;47633;51.494;5.386;2023-04-28T13:12:30;100998.22;;;19.07;49.85